sensor_id;sensor_type;location;lat;lon;timestamp;P1;durP1;ratioP1;P2;durP2;ratioP2
8938;SDS011;4504;48.810;9.172;2023-06-22T00:01:18;114.57;;;4.30;;
8938;SDS011;4504;48.810;9.172;2023-06-22T00:03:46;114.20;;;4.30;;
8938;SDS011;4504;48.810;9.172;2023-06-22T00:06:13;115.60;;;4.83;;
8938;SDS011;4504;48.810;9.172;2023-06-22T00:08:40;115.73;;;4.10;;
8938;SDS011;4504;48.810;9.172;2023-06-22T00:11:07;113.47;;;4.20;;
8938;SDS011;4504;48.810;9.172;2023-06-22T00:13:34;114.27;;;4.27;;
8938;SDS011;4504;48.810;9.172;2023-06-22T00:16:01;112.67;;;4.27;;
8938;SDS011;4504;48.810;9.172;2023-06-22T00:18:29;112.70;;;4.60;;
8938;SDS011;4504;48.810;9.172;2023-06-22T00:20:57;113.07;;;3.87;;
8938;SDS011;4504;48.810;9.172;2023-06-22T00:23:24;113.90;;;4.57;;
8938;SDS011;4504;48.810;9.172;2023-06-22T00:25:51;111.67;;;3.83;;
8938;SDS011;4504;48.810;9.172;2023-06-22T00:28:18;113.43;;;4.13;;
8938;SDS011;4504;48.810;9.172;2023-06-22T00:30:45;111.97;;;3.90;;
8938;SDS011;4504;48.810;9.172;2023-06-22T00:33:12;117.47;;;4.13;;
8938;SDS011;4504;48.810;9.172;2023-06-22T00:35:42;114.13;;;4.20;;
8938;SDS011;4504;48.810;9.172;2023-06-22T00:38:09;113.37;;;4.37;;
8938;SDS011;4504;48.810;9.172;2023-06-22T00:40:36;112.70;;;3.90;;
8938;SDS011;4504;48.810;9.172;2023-06-22T00:43:05;115.70;;;4.53;;
8938;SDS011;4504;48.810;9.172;2023-06-22T00:45:32;113.50;;;4.13;;
8938;SDS011;4504;48.810;9.172;2023-06-22T00:47:59;112.37;;;3.80;;
8938;SDS011;4504;48.810;9.172;2023-06-22T00:50:28;113.30;;;4.73;;
8938;SDS011;4504;48.810;9.172;2023-06-22T00:53:00;114.07;;;4.40;;
8938;SDS011;4504;48.810;9.172;2023-06-22T00:55:33;120.03;;;4.77;;
8938;SDS011;4504;48.810;9.172;2023-06-22T00:58:02;114.70;;;4.07;;
8938;SDS011;4504;48.810;9.172;2023-06-22T01:00:33;116.23;;;4.40;;
8938;SDS011;4504;48.810;9.172;2023-06-22T01:03:01;117.70;;;5.17;;
8938;SDS011;4504;48.810;9.172;2023-06-22T01:05:29;117.37;;;4.03;;
8938;SDS011;4504;48.810;9.172;2023-06-22T01:08:05;115.37;;;4.67;;
8938;SDS011;4504;48.810;9.172;2023-06-22T01:10:43;115.20;;;4.60;;
8938;SDS011;4504;48.810;9.172;2023-06-22T01:13:18;116.40;;;4.57;;
8938;SDS011;4504;48.810;9.172;2023-06-22T01:15:53;117.00;;;5.03;;
8938;SDS011;4504;48.810;9.172;2023-06-22T01:18:26;114.97;;;4.57;;
8938;SDS011;4504;48.810;9.172;2023-06-22T01:20:56;121.03;;;4.87;;
8938;SDS011;4504;48.810;9.172;2023-06-22T01:23:29;115.77;;;4.27;;
8938;SDS011;4504;48.810;9.172;2023-06-22T01:26:08;114.07;;;4.40;;
8938;SDS011;4504;48.810;9.172;2023-06-22T01:28:47;114.80;;;4.70;;
8938;SDS011;4504;48.810;9.172;2023-06-22T01:31:17;114.80;;;4.80;;
8938;SDS011;4504;48.810;9.172;2023-06-22T01:33:49;116.50;;;4.53;;
8938;SDS011;4504;48.810;9.172;2023-06-22T01:36:17;114.70;;;4.20;;
8938;SDS011;4504;48.810;9.172;2023-06-22T01:38:45;114.90;;;4.57;;
8938;SDS011;4504;48.810;9.172;2023-06-22T01:41:13;114.90;;;4.57;;
8938;SDS011;4504;48.810;9.172;2023-06-22T01:43:41;115.37;;;4.70;;
8938;SDS011;4504;48.810;9.172;2023-06-22T01:46:11;115.20;;;4.47;;
8938;SDS011;4504;48.810;9.172;2023-06-22T01:48:38;115.83;;;4.70;;
8938;SDS011;4504;48.810;9.172;2023-06-22T01:51:06;118.87;;;5.03;;
8938;SDS011;4504;48.810;9.172;2023-06-22T01:53:33;114.17;;;4.80;;
8938;SDS011;4504;48.810;9.172;2023-06-22T01:56:00;116.13;;;4.40;;
8938;SDS011;4504;48.810;9.172;2023-06-22T01:58:29;117.87;;;4.17;;
8938;SDS011;4504;48.810;9.172;2023-06-22T02:00:58;113.43;;;3.70;;
8938;SDS011;4504;48.810;9.172;2023-06-22T02:03:31;116.57;;;4.90;;
8938;SDS011;4504;48.810;9.172;2023-06-22T02:06:03;117.17;;;4.80;;
8938;SDS011;4504;48.810;9.172;2023-06-22T02:08:35;115.17;;;4.60;;
8938;SDS011;4504;48.810;9.172;2023-06-22T02:11:07;113.40;;;4.30;;
8938;SDS011;4504;48.810;9.172;2023-06-22T02:13:36;116.87;;;4.87;;
8938;SDS011;4504;48.810;9.172;2023-06-22T02:16:08;117.40;;;5.10;;
8938;SDS011;4504;48.810;9.172;2023-06-22T02:18:37;116.17;;;4.87;;
8938;SDS011;4504;48.810;9.172;2023-06-22T02:21:06;115.00;;;4.17;;
8938;SDS011;4504;48.810;9.172;2023-06-22T02:23:33;113.70;;;4.47;;
8938;SDS011;4504;48.810;9.172;2023-06-22T02:26:01;115.33;;;4.80;;
8938;SDS011;4504;48.810;9.172;2023-06-22T02:28:28;118.87;;;4.73;;
8938;SDS011;4504;48.810;9.172;2023-06-22T02:30:55;115.10;;;4.80;;
8938;SDS011;4504;48.810;9.172;2023-06-22T02:33:22;117.40;;;3.90;;
8938;SDS011;4504;48.810;9.172;2023-06-22T02:35:50;114.77;;;4.10;;
8938;SDS011;4504;48.810;9.172;2023-06-22T02:38:20;115.77;;;4.23;;
8938;SDS011;4504;48.810;9.172;2023-06-22T02:40:51;114.67;;;4.50;;
8938;SDS011;4504;48.810;9.172;2023-06-22T02:43:18;114.77;;;4.63;;
8938;SDS011;4504;48.810;9.172;2023-06-22T02:45:45;116.67;;;4.47;;
8938;SDS011;4504;48.810;9.172;2023-06-22T02:48:12;115.40;;;4.80;;
8938;SDS011;4504;48.810;9.172;2023-06-22T02:50:39;113.67;;;4.37;;
8938;SDS011;4504;48.810;9.172;2023-06-22T02:53:07;116.83;;;5.10;;
8938;SDS011;4504;48.810;9.172;2023-06-22T02:55:37;115.77;;;3.90;;
8938;SDS011;4504;48.810;9.172;2023-06-22T02:58:05;116.27;;;4.90;;
8938;SDS011;4504;48.810;9.172;2023-06-22T03:00:35;115.27;;;4.30;;
8938;SDS011;4504;48.810;9.172;2023-06-22T03:03:02;116.97;;;4.23;;
8938;SDS011;4504;48.810;9.172;2023-06-22T03:05:29;114.57;;;3.97;;
8938;SDS011;4504;48.810;9.172;2023-06-22T03:07:58;114.97;;;3.80;;
8938;SDS011;4504;48.810;9.172;2023-06-22T03:10:29;116.47;;;4.47;;
8938;SDS011;4504;48.810;9.172;2023-06-22T03:12:56;116.30;;;4.33;;
8938;SDS011;4504;48.810;9.172;2023-06-22T03:15:23;114.63;;;4.10;;
8938;SDS011;4504;48.810;9.172;2023-06-22T03:17:51;118.80;;;4.63;;
8938;SDS011;4504;48.810;9.172;2023-06-22T03:20:18;115.37;;;4.70;;
8938;SDS011;4504;48.810;9.172;2023-06-22T03:22:46;115.90;;;4.40;;
8938;SDS011;4504;48.810;9.172;2023-06-22T03:25:13;116.43;;;4.60;;
8938;SDS011;4504;48.810;9.172;2023-06-22T03:27:45;118.67;;;5.20;;
8938;SDS011;4504;48.810;9.172;2023-06-22T03:30:13;115.63;;;4.43;;
8938;SDS011;4504;48.810;9.172;2023-06-22T03:32:40;114.37;;;4.23;;
8938;SDS011;4504;48.810;9.172;2023-06-22T03:35:08;116.73;;;5.10;;
8938;SDS011;4504;48.810;9.172;2023-06-22T03:37:38;116.07;;;4.80;;
8938;SDS011;4504;48.810;9.172;2023-06-22T03:40:05;117.90;;;4.50;;
8938;SDS011;4504;48.810;9.172;2023-06-22T03:42:34;115.57;;;4.83;;
8938;SDS011;4504;48.810;9.172;2023-06-22T03:45:03;116.07;;;4.97;;
8938;SDS011;4504;48.810;9.172;2023-06-22T03:47:32;115.97;;;4.53;;
8938;SDS011;4504;48.810;9.172;2023-06-22T03:49:59;115.37;;;4.60;;
8938;SDS011;4504;48.810;9.172;2023-06-22T03:52:29;114.20;;;4.37;;
8938;SDS011;4504;48.810;9.172;2023-06-22T03:54:56;117.87;;;4.90;;
8938;SDS011;4504;48.810;9.172;2023-06-22T03:57:23;115.17;;;4.50;;
8938;SDS011;4504;48.810;9.172;2023-06-22T03:59:50;115.53;;;4.23;;
8938;SDS011;4504;48.810;9.172;2023-06-22T04:02:18;116.17;;;4.90;;
8938;SDS011;4504;48.810;9.172;2023-06-22T04:04:45;114.77;;;4.33;;
8938;SDS011;4504;48.810;9.172;2023-06-22T04:07:12;116.60;;;4.80;;
8938;SDS011;4504;48.810;9.172;2023-06-22T04:09:39;114.83;;;4.80;;
8938;SDS011;4504;48.810;9.172;2023-06-22T04:12:06;113.77;;;3.80;;
8938;SDS011;4504;48.810;9.172;2023-06-22T04:14:34;112.40;;;3.70;;
8938;SDS011;4504;48.810;9.172;2023-06-22T04:17:01;113.07;;;4.13;;
8938;SDS011;4504;48.810;9.172;2023-06-22T04:19:29;114.77;;;4.03;;
8938;SDS011;4504;48.810;9.172;2023-06-22T04:21:56;115.00;;;4.50;;
8938;SDS011;4504;48.810;9.172;2023-06-22T04:24:23;114.53;;;4.30;;
8938;SDS011;4504;48.810;9.172;2023-06-22T04:26:50;115.33;;;4.70;;
8938;SDS011;4504;48.810;9.172;2023-06-22T04:29:20;117.00;;;5.17;;
8938;SDS011;4504;48.810;9.172;2023-06-22T04:31:55;115.00;;;4.40;;
8938;SDS011;4504;48.810;9.172;2023-06-22T04:34:23;115.17;;;4.33;;
8938;SDS011;4504;48.810;9.172;2023-06-22T04:36:53;114.37;;;4.10;;
8938;SDS011;4504;48.810;9.172;2023-06-22T04:39:20;116.10;;;4.97;;
8938;SDS011;4504;48.810;9.172;2023-06-22T04:41:48;114.90;;;4.20;;
8938;SDS011;4504;48.810;9.172;2023-06-22T04:44:17;115.43;;;4.50;;
8938;SDS011;4504;48.810;9.172;2023-06-22T04:46:49;113.20;;;4.20;;
8938;SDS011;4504;48.810;9.172;2023-06-22T04:49:19;115.30;;;4.57;;
8938;SDS011;4504;48.810;9.172;2023-06-22T04:51:47;113.17;;;4.20;;
8938;SDS011;4504;48.810;9.172;2023-06-22T04:54:18;116.77;;;4.63;;
8938;SDS011;4504;48.810;9.172;2023-06-22T04:56:45;115.17;;;4.70;;
8938;SDS011;4504;48.810;9.172;2023-06-22T04:59:13;118.90;;;4.57;;
8938;SDS011;4504;48.810;9.172;2023-06-22T05:01:43;120.13;;;4.80;;
8938;SDS011;4504;48.810;9.172;2023-06-22T05:04:10;115.37;;;4.40;;
8938;SDS011;4504;48.810;9.172;2023-06-22T05:06:37;113.43;;;4.13;;
8938;SDS011;4504;48.810;9.172;2023-06-22T05:09:05;116.00;;;4.40;;
8938;SDS011;4504;48.810;9.172;2023-06-22T05:11:33;114.63;;;4.13;;
8938;SDS011;4504;48.810;9.172;2023-06-22T05:14:00;114.50;;;4.23;;
8938;SDS011;4504;48.810;9.172;2023-06-22T05:16:27;115.53;;;4.30;;
8938;SDS011;4504;48.810;9.172;2023-06-22T05:18:55;114.00;;;3.87;;
8938;SDS011;4504;48.810;9.172;2023-06-22T05:21:22;116.00;;;4.07;;
8938;SDS011;4504;48.810;9.172;2023-06-22T05:23:50;115.77;;;4.40;;
8938;SDS011;4504;48.810;9.172;2023-06-22T05:26:18;113.73;;;4.23;;
8938;SDS011;4504;48.810;9.172;2023-06-22T05:28:46;115.97;;;4.70;;
8938;SDS011;4504;48.810;9.172;2023-06-22T05:31:14;115.23;;;4.60;;
8938;SDS011;4504;48.810;9.172;2023-06-22T05:33:42;119.00;;;4.30;;
8938;SDS011;4504;48.810;9.172;2023-06-22T05:36:10;116.07;;;4.00;;
8938;SDS011;4504;48.810;9.172;2023-06-22T05:38:37;114.57;;;4.13;;
8938;SDS011;4504;48.810;9.172;2023-06-22T05:41:05;117.57;;;4.43;;
8938;SDS011;4504;48.810;9.172;2023-06-22T05:43:32;114.57;;;4.70;;
8938;SDS011;4504;48.810;9.172;2023-06-22T05:46:01;115.57;;;4.40;;
8938;SDS011;4504;48.810;9.172;2023-06-22T05:48:28;116.67;;;4.33;;
8938;SDS011;4504;48.810;9.172;2023-06-22T05:50:55;114.07;;;5.00;;
8938;SDS011;4504;48.810;9.172;2023-06-22T05:53:22;116.87;;;5.00;;
8938;SDS011;4504;48.810;9.172;2023-06-22T05:55:49;113.27;;;4.30;;
8938;SDS011;4504;48.810;9.172;2023-06-22T05:58:16;113.60;;;4.47;;
8938;SDS011;4504;48.810;9.172;2023-06-22T06:00:43;117.43;;;4.80;;
8938;SDS011;4504;48.810;9.172;2023-06-22T06:03:12;115.50;;;4.43;;
8938;SDS011;4504;48.810;9.172;2023-06-22T06:05:42;115.00;;;4.33;;
8938;SDS011;4504;48.810;9.172;2023-06-22T06:08:10;115.37;;;4.53;;
8938;SDS011;4504;48.810;9.172;2023-06-22T06:10:37;114.30;;;3.50;;
8938;SDS011;4504;48.810;9.172;2023-06-22T06:13:04;114.27;;;4.07;;
8938;SDS011;4504;48.810;9.172;2023-06-22T06:15:31;113.97;;;3.80;;
8938;SDS011;4504;48.810;9.172;2023-06-22T06:17:59;114.57;;;4.27;;
8938;SDS011;4504;48.810;9.172;2023-06-22T06:20:28;115.07;;;4.50;;
8938;SDS011;4504;48.810;9.172;2023-06-22T06:22:55;113.60;;;3.90;;
8938;SDS011;4504;48.810;9.172;2023-06-22T06:25:22;116.33;;;4.00;;
8938;SDS011;4504;48.810;9.172;2023-06-22T06:27:50;114.27;;;5.23;;
8938;SDS011;4504;48.810;9.172;2023-06-22T06:30:19;116.97;;;4.17;;
8938;SDS011;4504;48.810;9.172;2023-06-22T06:32:46;112.57;;;3.90;;
8938;SDS011;4504;48.810;9.172;2023-06-22T06:35:14;116.70;;;5.10;;
8938;SDS011;4504;48.810;9.172;2023-06-22T06:37:43;115.00;;;4.80;;
8938;SDS011;4504;48.810;9.172;2023-06-22T06:40:12;114.37;;;3.80;;
8938;SDS011;4504;48.810;9.172;2023-06-22T06:42:41;113.07;;;3.73;;
8938;SDS011;4504;48.810;9.172;2023-06-22T06:45:10;116.20;;;4.23;;
8938;SDS011;4504;48.810;9.172;2023-06-22T06:47:38;115.30;;;4.20;;
8938;SDS011;4504;48.810;9.172;2023-06-22T06:50:06;114.40;;;5.00;;
8938;SDS011;4504;48.810;9.172;2023-06-22T06:52:33;112.07;;;4.33;;
8938;SDS011;4504;48.810;9.172;2023-06-22T06:55:02;114.87;;;4.53;;
8938;SDS011;4504;48.810;9.172;2023-06-22T06:57:33;110.90;;;4.40;;
8938;SDS011;4504;48.810;9.172;2023-06-22T07:00:00;112.00;;;4.30;;
8938;SDS011;4504;48.810;9.172;2023-06-22T07:02:32;113.00;;;4.50;;
8938;SDS011;4504;48.810;9.172;2023-06-22T07:04:59;111.10;;;4.00;;
8938;SDS011;4504;48.810;9.172;2023-06-22T07:07:29;111.43;;;4.20;;
8938;SDS011;4504;48.810;9.172;2023-06-22T07:09:56;112.07;;;3.70;;
8938;SDS011;4504;48.810;9.172;2023-06-22T07:12:25;112.60;;;4.23;;
8938;SDS011;4504;48.810;9.172;2023-06-22T07:14:52;112.43;;;3.97;;
8938;SDS011;4504;48.810;9.172;2023-06-22T07:17:19;112.97;;;4.50;;
8938;SDS011;4504;48.810;9.172;2023-06-22T07:19:46;111.77;;;3.60;;
8938;SDS011;4504;48.810;9.172;2023-06-22T07:22:13;112.10;;;3.60;;
8938;SDS011;4504;48.810;9.172;2023-06-22T07:24:40;111.20;;;4.07;;
8938;SDS011;4504;48.810;9.172;2023-06-22T07:27:07;110.37;;;3.97;;
8938;SDS011;4504;48.810;9.172;2023-06-22T07:29:38;109.67;;;3.37;;
8938;SDS011;4504;48.810;9.172;2023-06-22T07:32:07;111.67;;;4.20;;
8938;SDS011;4504;48.810;9.172;2023-06-22T07:34:34;110.37;;;3.70;;
8938;SDS011;4504;48.810;9.172;2023-06-22T07:37:01;110.30;;;3.20;;
8938;SDS011;4504;48.810;9.172;2023-06-22T07:39:29;110.97;;;4.13;;
8938;SDS011;4504;48.810;9.172;2023-06-22T07:41:57;110.07;;;3.57;;
8938;SDS011;4504;48.810;9.172;2023-06-22T07:44:23;111.20;;;3.63;;
8938;SDS011;4504;48.810;9.172;2023-06-22T07:46:52;112.57;;;3.40;;
8938;SDS011;4504;48.810;9.172;2023-06-22T07:49:19;121.10;;;3.30;;
8938;SDS011;4504;48.810;9.172;2023-06-22T07:51:46;108.33;;;4.40;;
8938;SDS011;4504;48.810;9.172;2023-06-22T07:54:13;113.17;;;3.63;;
8938;SDS011;4504;48.810;9.172;2023-06-22T07:56:41;110.77;;;3.23;;
8938;SDS011;4504;48.810;9.172;2023-06-22T07:59:08;112.97;;;4.37;;
8938;SDS011;4504;48.810;9.172;2023-06-22T08:01:35;111.97;;;3.50;;
8938;SDS011;4504;48.810;9.172;2023-06-22T08:04:03;115.37;;;3.13;;
8938;SDS011;4504;48.810;9.172;2023-06-22T08:06:31;109.70;;;3.30;;
8938;SDS011;4504;48.810;9.172;2023-06-22T08:08:57;109.87;;;3.73;;
8938;SDS011;4504;48.810;9.172;2023-06-22T08:11:24;107.80;;;3.17;;
8938;SDS011;4504;48.810;9.172;2023-06-22T08:13:51;109.73;;;3.30;;
8938;SDS011;4504;48.810;9.172;2023-06-22T08:16:21;109.80;;;3.20;;
8938;SDS011;4504;48.810;9.172;2023-06-22T08:18:48;108.20;;;3.30;;
8938;SDS011;4504;48.810;9.172;2023-06-22T08:21:16;109.67;;;3.20;;
8938;SDS011;4504;48.810;9.172;2023-06-22T08:23:43;110.23;;;3.77;;
8938;SDS011;4504;48.810;9.172;2023-06-22T08:26:10;108.40;;;3.70;;
8938;SDS011;4504;48.810;9.172;2023-06-22T08:28:37;111.70;;;3.37;;
8938;SDS011;4504;48.810;9.172;2023-06-22T08:31:04;109.57;;;3.37;;
8938;SDS011;4504;48.810;9.172;2023-06-22T08:33:31;107.80;;;3.40;;
8938;SDS011;4504;48.810;9.172;2023-06-22T08:35:58;106.90;;;3.30;;
8938;SDS011;4504;48.810;9.172;2023-06-22T08:38:27;108.50;;;3.10;;
8938;SDS011;4504;48.810;9.172;2023-06-22T08:40:54;110.20;;;3.00;;
8938;SDS011;4504;48.810;9.172;2023-06-22T08:43:21;107.57;;;3.20;;
8938;SDS011;4504;48.810;9.172;2023-06-22T08:45:48;107.67;;;3.13;;
8938;SDS011;4504;48.810;9.172;2023-06-22T08:48:15;107.20;;;3.07;;
8938;SDS011;4504;48.810;9.172;2023-06-22T08:50:41;106.10;;;2.50;;
8938;SDS011;4504;48.810;9.172;2023-06-22T08:53:08;105.20;;;2.53;;
8938;SDS011;4504;48.810;9.172;2023-06-22T08:55:37;107.60;;;2.73;;
8938;SDS011;4504;48.810;9.172;2023-06-22T08:58:04;109.30;;;3.53;;
8938;SDS011;4504;48.810;9.172;2023-06-22T09:00:31;106.57;;;2.83;;
8938;SDS011;4504;48.810;9.172;2023-06-22T09:03:00;105.93;;;2.87;;
8938;SDS011;4504;48.810;9.172;2023-06-22T09:05:27;106.57;;;3.20;;
8938;SDS011;4504;48.810;9.172;2023-06-22T09:07:55;108.67;;;3.90;;
8938;SDS011;4504;48.810;9.172;2023-06-22T09:10:24;106.87;;;2.53;;
8938;SDS011;4504;48.810;9.172;2023-06-22T09:12:52;106.20;;;2.47;;
8938;SDS011;4504;48.810;9.172;2023-06-22T09:15:19;110.10;;;2.73;;
8938;SDS011;4504;48.810;9.172;2023-06-22T09:17:46;108.37;;;3.80;;
8938;SDS011;4504;48.810;9.172;2023-06-22T09:20:13;105.50;;;2.90;;
8938;SDS011;4504;48.810;9.172;2023-06-22T09:22:40;104.37;;;2.33;;
8938;SDS011;4504;48.810;9.172;2023-06-22T09:25:07;104.30;;;2.93;;
8938;SDS011;4504;48.810;9.172;2023-06-22T09:27:34;105.70;;;2.80;;
8938;SDS011;4504;48.810;9.172;2023-06-22T09:30:03;107.30;;;3.33;;
8938;SDS011;4504;48.810;9.172;2023-06-22T09:32:31;110.43;;;2.60;;
8938;SDS011;4504;48.810;9.172;2023-06-22T09:34:58;103.67;;;3.10;;
8938;SDS011;4504;48.810;9.172;2023-06-22T09:37:25;104.27;;;2.97;;
8938;SDS011;4504;48.810;9.172;2023-06-22T09:39:51;104.80;;;2.90;;
8938;SDS011;4504;48.810;9.172;2023-06-22T09:42:18;105.37;;;3.20;;
8938;SDS011;4504;48.810;9.172;2023-06-22T09:44:46;106.90;;;3.10;;
8938;SDS011;4504;48.810;9.172;2023-06-22T09:47:14;105.10;;;2.77;;
8938;SDS011;4504;48.810;9.172;2023-06-22T09:49:41;105.97;;;3.17;;
8938;SDS011;4504;48.810;9.172;2023-06-22T09:52:08;119.80;;;3.80;;
8938;SDS011;4504;48.810;9.172;2023-06-22T09:54:36;104.97;;;2.77;;
8938;SDS011;4504;48.810;9.172;2023-06-22T09:57:03;105.20;;;2.73;;
8938;SDS011;4504;48.810;9.172;2023-06-22T09:59:31;109.60;;;3.03;;
8938;SDS011;4504;48.810;9.172;2023-06-22T10:01:57;104.57;;;2.60;;
8938;SDS011;4504;48.810;9.172;2023-06-22T10:04:26;106.70;;;2.93;;
8938;SDS011;4504;48.810;9.172;2023-06-22T10:06:53;108.83;;;3.30;;
8938;SDS011;4504;48.810;9.172;2023-06-22T10:09:20;109.50;;;3.57;;
8938;SDS011;4504;48.810;9.172;2023-06-22T10:11:47;102.73;;;3.33;;
8938;SDS011;4504;48.810;9.172;2023-06-22T10:14:14;102.63;;;2.90;;
8938;SDS011;4504;48.810;9.172;2023-06-22T10:16:41;102.70;;;3.00;;
8938;SDS011;4504;48.810;9.172;2023-06-22T10:19:08;106.17;;;3.00;;
8938;SDS011;4504;48.810;9.172;2023-06-22T10:21:37;105.37;;;3.23;;
8938;SDS011;4504;48.810;9.172;2023-06-22T10:24:04;103.60;;;3.30;;
8938;SDS011;4504;48.810;9.172;2023-06-22T10:26:32;104.70;;;3.13;;
8938;SDS011;4504;48.810;9.172;2023-06-22T10:28:59;105.43;;;2.93;;
8938;SDS011;4504;48.810;9.172;2023-06-22T10:31:26;107.00;;;2.70;;
8938;SDS011;4504;48.810;9.172;2023-06-22T10:33:53;104.97;;;3.70;;
8938;SDS011;4504;48.810;9.172;2023-06-22T10:36:20;102.40;;;2.80;;
8938;SDS011;4504;48.810;9.172;2023-06-22T10:38:49;102.27;;;2.90;;
8938;SDS011;4504;48.810;9.172;2023-06-22T10:41:17;103.40;;;3.40;;
8938;SDS011;4504;48.810;9.172;2023-06-22T10:43:44;101.67;;;2.97;;
8938;SDS011;4504;48.810;9.172;2023-06-22T10:46:12;101.57;;;3.07;;
8938;SDS011;4504;48.810;9.172;2023-06-22T10:48:39;103.47;;;3.33;;
8938;SDS011;4504;48.810;9.172;2023-06-22T10:51:06;103.07;;;2.90;;
8938;SDS011;4504;48.810;9.172;2023-06-22T10:53:33;103.83;;;2.60;;
8938;SDS011;4504;48.810;9.172;2023-06-22T10:56:01;103.77;;;3.43;;
8938;SDS011;4504;48.810;9.172;2023-06-22T10:58:28;102.70;;;3.10;;
8938;SDS011;4504;48.810;9.172;2023-06-22T11:00:55;100.70;;;2.67;;
8938;SDS011;4504;48.810;9.172;2023-06-22T11:03:22;104.30;;;3.63;;
8938;SDS011;4504;48.810;9.172;2023-06-22T11:05:49;103.20;;;3.13;;
8938;SDS011;4504;48.810;9.172;2023-06-22T11:08:15;100.47;;;2.53;;
8938;SDS011;4504;48.810;9.172;2023-06-22T11:10:43;100.63;;;2.73;;
8938;SDS011;4504;48.810;9.172;2023-06-22T11:13:11;100.07;;;2.27;;
8938;SDS011;4504;48.810;9.172;2023-06-22T11:15:40;103.70;;;2.90;;
8938;SDS011;4504;48.810;9.172;2023-06-22T11:18:07;101.80;;;3.17;;
8938;SDS011;4504;48.810;9.172;2023-06-22T11:20:34;100.60;;;3.33;;
8938;SDS011;4504;48.810;9.172;2023-06-22T11:23:04;102.30;;;2.87;;
8938;SDS011;4504;48.810;9.172;2023-06-22T11:25:32;101.37;;;2.50;;
8938;SDS011;4504;48.810;9.172;2023-06-22T11:28:00;107.90;;;3.60;;
8938;SDS011;4504;48.810;9.172;2023-06-22T11:30:29;101.93;;;2.50;;
8938;SDS011;4504;48.810;9.172;2023-06-22T11:32:56;101.43;;;3.10;;
8938;SDS011;4504;48.810;9.172;2023-06-22T11:35:25;103.63;;;2.90;;
8938;SDS011;4504;48.810;9.172;2023-06-22T11:37:52;103.17;;;2.67;;
8938;SDS011;4504;48.810;9.172;2023-06-22T11:40:19;101.07;;;2.40;;
8938;SDS011;4504;48.810;9.172;2023-06-22T11:42:48;104.17;;;3.63;;
8938;SDS011;4504;48.810;9.172;2023-06-22T11:45:15;107.30;;;3.03;;
8938;SDS011;4504;48.810;9.172;2023-06-22T11:47:44;106.70;;;3.10;;
8938;SDS011;4504;48.810;9.172;2023-06-22T11:50:11;101.67;;;2.77;;
8938;SDS011;4504;48.810;9.172;2023-06-22T11:52:37;102.03;;;2.70;;
8938;SDS011;4504;48.810;9.172;2023-06-22T11:55:05;106.57;;;3.40;;
8938;SDS011;4504;48.810;9.172;2023-06-22T11:57:33;107.40;;;3.40;;
8938;SDS011;4504;48.810;9.172;2023-06-22T12:00:00;102.73;;;2.73;;
8938;SDS011;4504;48.810;9.172;2023-06-22T12:02:32;103.70;;;3.47;;
8938;SDS011;4504;48.810;9.172;2023-06-22T12:05:00;105.70;;;2.77;;
8938;SDS011;4504;48.810;9.172;2023-06-22T12:07:29;110.00;;;3.13;;
8938;SDS011;4504;48.810;9.172;2023-06-22T12:09:56;104.90;;;2.97;;
8938;SDS011;4504;48.810;9.172;2023-06-22T12:12:24;108.10;;;3.07;;
8938;SDS011;4504;48.810;9.172;2023-06-22T12:14:50;106.40;;;3.03;;
8938;SDS011;4504;48.810;9.172;2023-06-22T12:17:17;103.33;;;2.93;;
8938;SDS011;4504;48.810;9.172;2023-06-22T12:19:44;102.20;;;2.53;;
8938;SDS011;4504;48.810;9.172;2023-06-22T12:22:13;106.00;;;2.17;;
8938;SDS011;4504;48.810;9.172;2023-06-22T12:24:40;101.10;;;2.40;;
8938;SDS011;4504;48.810;9.172;2023-06-22T12:27:07;103.40;;;3.00;;
8938;SDS011;4504;48.810;9.172;2023-06-22T12:29:35;108.60;;;2.97;;
8938;SDS011;4504;48.810;9.172;2023-06-22T12:32:02;106.77;;;2.83;;
8938;SDS011;4504;48.810;9.172;2023-06-22T12:34:30;102.80;;;2.70;;
8938;SDS011;4504;48.810;9.172;2023-06-22T12:36:57;103.60;;;2.50;;
8938;SDS011;4504;48.810;9.172;2023-06-22T12:39:25;104.57;;;3.30;;
8938;SDS011;4504;48.810;9.172;2023-06-22T12:41:52;103.27;;;2.97;;
8938;SDS011;4504;48.810;9.172;2023-06-22T12:44:19;107.67;;;3.07;;
8938;SDS011;4504;48.810;9.172;2023-06-22T12:46:46;106.23;;;3.10;;
8938;SDS011;4504;48.810;9.172;2023-06-22T12:49:13;101.80;;;2.80;;
8938;SDS011;4504;48.810;9.172;2023-06-22T12:51:40;101.90;;;2.93;;
8938;SDS011;4504;48.810;9.172;2023-06-22T12:54:08;103.20;;;2.90;;
8938;SDS011;4504;48.810;9.172;2023-06-22T12:56:36;103.37;;;2.80;;
8938;SDS011;4504;48.810;9.172;2023-06-22T12:59:04;102.50;;;2.60;;
8938;SDS011;4504;48.810;9.172;2023-06-22T13:01:31;102.70;;;3.07;;
8938;SDS011;4504;48.810;9.172;2023-06-22T13:03:58;101.30;;;2.60;;
